Terminal Aerodrome Forecast
Issued by NWS

Home | Current Version | Previous Version | Text Only | Print | Product List | Glossary On
Versions: 1 2 3 4 5 6 7 8 9 10 11 12 13 14 15
000
FTUS45 KTFX 201100
TAFHLN
TAF
KHLN 201124Z 2012/2112 28012G20KT P6SM BKN100
     FM201400 28020G28KT P6SM SCT070
     FM202100 28018G25KT P6SM SKC
     FM210100 28012KT P6SM BKN250
     FM210800 VRB03KT P6SM BKN250=

USA.gov is the U.S. government's official web portal to all federal, state and local government web resources and services.